sensor_id;sensor_type;location;lat;lon;timestamp;temperature;humidity
48575;DHT22;34352;51.084;3.712;2023-12-29T00:00:15;10.30;59.90
48575;DHT22;34352;51.084;3.712;2023-12-29T00:02:43;10.30;61.10
48575;DHT22;34352;51.084;3.712;2023-12-29T00:05:08;10.30;62.90
48575;DHT22;34352;51.084;3.712;2023-12-29T00:07:37;10.30;65.40
48575;DHT22;34352;51.084;3.712;2023-12-29T00:10:04;10.20;65.70
48575;DHT22;34352;51.084;3.712;2023-12-29T00:12:30;10.20;67.10
48575;DHT22;34352;51.084;3.712;2023-12-29T00:14:56;10.20;67.10
48575;DHT22;34352;51.084;3.712;2023-12-29T00:17:30;10.20;66.70
48575;DHT22;34352;51.084;3.712;2023-12-29T00:19:58;10.20;66.80
48575;DHT22;34352;51.084;3.712;2023-12-29T00:22:27;10.10;69.10
48575;DHT22;34352;51.084;3.712;2023-12-29T00:25:08;10.10;71.40
48575;DHT22;34352;51.084;3.712;2023-12-29T00:27:58;10.10;71.00
48575;DHT22;34352;51.084;3.712;2023-12-29T00:30:25;10.10;69.40
48575;DHT22;34352;51.084;3.712;2023-12-29T00:32:57;10.10;69.90
48575;DHT22;34352;51.084;3.712;2023-12-29T00:35:39;10.10;71.50
48575;DHT22;34352;51.084;3.712;2023-12-29T00:38:07;10.10;70.00
48575;DHT22;34352;51.084;3.712;2023-12-29T00:40:34;10.10;69.90
48575;DHT22;34352;51.084;3.712;2023-12-29T00:43:00;10.10;68.70
48575;DHT22;34352;51.084;3.712;2023-12-29T00:45:46;10.20;69.30
48575;DHT22;34352;51.084;3.712;2023-12-29T00:48:25;10.20;70.70
48575;DHT22;34352;51.084;3.712;2023-12-29T00:53:49;10.20;67.80
48575;DHT22;34352;51.084;3.712;2023-12-29T00:56:15;10.30;65.60
48575;DHT22;34352;51.084;3.712;2023-12-29T00:58:47;10.30;62.70
48575;DHT22;34352;51.084;3.712;2023-12-29T01:01:23;10.30;62.30
48575;DHT22;34352;51.084;3.712;2023-12-29T01:03:54;10.40;60.40
48575;DHT22;34352;51.084;3.712;2023-12-29T01:06:34;10.40;59.50
48575;DHT22;34352;51.084;3.712;2023-12-29T01:12:20;10.40;61.00
48575;DHT22;34352;51.084;3.712;2023-12-29T01:14:59;10.40;60.50
48575;DHT22;34352;51.084;3.712;2023-12-29T01:17:27;10.40;60.00
48575;DHT22;34352;51.084;3.712;2023-12-29T01:20:13;10.40;62.10
48575;DHT22;34352;51.084;3.712;2023-12-29T01:22:39;10.40;63.40
48575;DHT22;34352;51.084;3.712;2023-12-29T01:25:22;10.40;64.80
48575;DHT22;34352;51.084;3.712;2023-12-29T01:28:21;10.30;66.30
48575;DHT22;34352;51.084;3.712;2023-12-29T01:34:14;10.20;71.60
48575;DHT22;34352;51.084;3.712;2023-12-29T01:36:52;10.20;71.80
48575;DHT22;34352;51.084;3.712;2023-12-29T01:39:24;10.20;72.20
48575;DHT22;34352;51.084;3.712;2023-12-29T01:41:50;10.20;71.80
48575;DHT22;34352;51.084;3.712;2023-12-29T01:44:22;10.20;71.40
48575;DHT22;34352;51.084;3.712;2023-12-29T01:47:11;10.20;72.50
48575;DHT22;34352;51.084;3.712;2023-12-29T01:49:44;10.10;72.70
48575;DHT22;34352;51.084;3.712;2023-12-29T01:55:05;10.20;70.00
48575;DHT22;34352;51.084;3.712;2023-12-29T02:00:41;10.10;71.50
48575;DHT22;34352;51.084;3.712;2023-12-29T02:03:20;10.20;69.60
48575;DHT22;34352;51.084;3.712;2023-12-29T02:09:00;10.30;67.80
48575;DHT22;34352;51.084;3.712;2023-12-29T02:12:00;10.20;68.30
48575;DHT22;34352;51.084;3.712;2023-12-29T02:14:56;10.20;69.30
48575;DHT22;34352;51.084;3.712;2023-12-29T02:20:44;10.30;68.60
48575;DHT22;34352;51.084;3.712;2023-12-29T02:23:30;10.20;69.40
48575;DHT22;34352;51.084;3.712;2023-12-29T02:26:02;10.20;71.70
48575;DHT22;34352;51.084;3.712;2023-12-29T02:31:57;10.20;72.40
48575;DHT22;34352;51.084;3.712;2023-12-29T02:34:40;10.20;72.40
48575;DHT22;34352;51.084;3.712;2023-12-29T02:37:33;10.20;73.50
48575;DHT22;34352;51.084;3.712;2023-12-29T02:40:02;10.20;75.30
48575;DHT22;34352;51.084;3.712;2023-12-29T02:42:28;10.20;75.50
48575;DHT22;34352;51.084;3.712;2023-12-29T02:44:56;10.20;76.40
48575;DHT22;34352;51.084;3.712;2023-12-29T02:47:21;10.10;76.40
48575;DHT22;34352;51.084;3.712;2023-12-29T02:49:48;10.20;77.20
48575;DHT22;34352;51.084;3.712;2023-12-29T02:52:16;10.10;76.50
48575;DHT22;34352;51.084;3.712;2023-12-29T02:54:43;10.20;76.40
48575;DHT22;34352;51.084;3.712;2023-12-29T02:57:09;10.20;75.70
48575;DHT22;34352;51.084;3.712;2023-12-29T02:59:37;10.20;75.30
48575;DHT22;34352;51.084;3.712;2023-12-29T03:02:09;10.20;74.80
48575;DHT22;34352;51.084;3.712;2023-12-29T03:04:34;10.20;74.40
48575;DHT22;34352;51.084;3.712;2023-12-29T03:07:03;10.20;73.70
48575;DHT22;34352;51.084;3.712;2023-12-29T03:09:30;10.20;73.20
48575;DHT22;34352;51.084;3.712;2023-12-29T03:11:58;10.20;73.40
48575;DHT22;34352;51.084;3.712;2023-12-29T03:14:27;10.30;72.40
48575;DHT22;34352;51.084;3.712;2023-12-29T03:16:55;10.30;71.10
48575;DHT22;34352;51.084;3.712;2023-12-29T03:19:21;10.30;69.40
48575;DHT22;34352;51.084;3.712;2023-12-29T03:21:47;10.30;70.20
48575;DHT22;34352;51.084;3.712;2023-12-29T03:24:23;10.20;70.10
48575;DHT22;34352;51.084;3.712;2023-12-29T03:26:51;10.20;70.30
48575;DHT22;34352;51.084;3.712;2023-12-29T03:29:16;10.30;70.00
48575;DHT22;34352;51.084;3.712;2023-12-29T03:31:42;10.30;69.70
48575;DHT22;34352;51.084;3.712;2023-12-29T03:34:09;10.20;69.70
48575;DHT22;34352;51.084;3.712;2023-12-29T03:36:38;10.20;69.90
48575;DHT22;34352;51.084;3.712;2023-12-29T03:39:05;10.20;71.60
48575;DHT22;34352;51.084;3.712;2023-12-29T03:41:37;10.20;71.10
48575;DHT22;34352;51.084;3.712;2023-12-29T03:44:05;10.30;70.90
48575;DHT22;34352;51.084;3.712;2023-12-29T03:46:32;10.40;70.00
48575;DHT22;34352;51.084;3.712;2023-12-29T03:48:58;10.30;70.80
48575;DHT22;34352;51.084;3.712;2023-12-29T03:51:31;10.30;71.70
48575;DHT22;34352;51.084;3.712;2023-12-29T03:54:04;10.30;72.40
48575;DHT22;34352;51.084;3.712;2023-12-29T03:56:40;10.30;72.70
48575;DHT22;34352;51.084;3.712;2023-12-29T03:59:06;10.30;73.60
48575;DHT22;34352;51.084;3.712;2023-12-29T04:01:33;10.30;72.30
48575;DHT22;34352;51.084;3.712;2023-12-29T04:04:01;10.30;73.00
48575;DHT22;34352;51.084;3.712;2023-12-29T04:06:26;10.20;75.30
48575;DHT22;34352;51.084;3.712;2023-12-29T04:08:53;10.20;75.60
48575;DHT22;34352;51.084;3.712;2023-12-29T04:11:29;10.10;76.50
48575;DHT22;34352;51.084;3.712;2023-12-29T04:13:55;10.10;78.10
48575;DHT22;34352;51.084;3.712;2023-12-29T04:16:26;10.10;78.70
48575;DHT22;34352;51.084;3.712;2023-12-29T04:18:52;10.00;79.90
48575;DHT22;34352;51.084;3.712;2023-12-29T04:21:33;10.00;80.10
48575;DHT22;34352;51.084;3.712;2023-12-29T04:23:59;10.00;79.40
48575;DHT22;34352;51.084;3.712;2023-12-29T04:26:36;10.00;79.60
48575;DHT22;34352;51.084;3.712;2023-12-29T04:29:06;10.00;80.60
48575;DHT22;34352;51.084;3.712;2023-12-29T04:31:39;10.00;81.30
48575;DHT22;34352;51.084;3.712;2023-12-29T04:34:08;10.00;80.30
48575;DHT22;34352;51.084;3.712;2023-12-29T04:36:37;10.00;79.80
48575;DHT22;34352;51.084;3.712;2023-12-29T04:39:10;10.10;78.90
48575;DHT22;34352;51.084;3.712;2023-12-29T04:41:44;10.10;79.00
48575;DHT22;34352;51.084;3.712;2023-12-29T04:44:10;10.10;79.40
48575;DHT22;34352;51.084;3.712;2023-12-29T04:46:36;10.00;79.80
48575;DHT22;34352;51.084;3.712;2023-12-29T04:49:11;10.00;79.90
48575;DHT22;34352;51.084;3.712;2023-12-29T04:51:41;10.00;81.50
48575;DHT22;34352;51.084;3.712;2023-12-29T04:54:09;10.00;81.20
48575;DHT22;34352;51.084;3.712;2023-12-29T04:56:37;10.10;79.30
48575;DHT22;34352;51.084;3.712;2023-12-29T04:59:05;10.00;79.50
48575;DHT22;34352;51.084;3.712;2023-12-29T05:01:32;10.10;80.00
48575;DHT22;34352;51.084;3.712;2023-12-29T05:04:05;10.00;81.00
48575;DHT22;34352;51.084;3.712;2023-12-29T05:06:31;10.00;83.00
48575;DHT22;34352;51.084;3.712;2023-12-29T05:09:06;10.00;83.30
48575;DHT22;34352;51.084;3.712;2023-12-29T05:11:39;10.00;83.30
48575;DHT22;34352;51.084;3.712;2023-12-29T05:14:08;10.00;84.60
48575;DHT22;34352;51.084;3.712;2023-12-29T05:16:35;10.10;84.30
48575;DHT22;34352;51.084;3.712;2023-12-29T05:19:06;10.10;84.10
48575;DHT22;34352;51.084;3.712;2023-12-29T05:21:32;10.20;83.90
48575;DHT22;34352;51.084;3.712;2023-12-29T05:24:00;10.20;84.50
48575;DHT22;34352;51.084;3.712;2023-12-29T05:26:27;10.10;86.90
48575;DHT22;34352;51.084;3.712;2023-12-29T05:28:55;10.10;89.40
48575;DHT22;34352;51.084;3.712;2023-12-29T05:31:28;10.00;90.50
48575;DHT22;34352;51.084;3.712;2023-12-29T05:33:56;10.00;90.90
48575;DHT22;34352;51.084;3.712;2023-12-29T05:36:25;10.00;91.10
48575;DHT22;34352;51.084;3.712;2023-12-29T05:38:52;10.00;91.70
48575;DHT22;34352;51.084;3.712;2023-12-29T05:41:24;10.00;91.20
48575;DHT22;34352;51.084;3.712;2023-12-29T05:43:50;10.10;91.10
48575;DHT22;34352;51.084;3.712;2023-12-29T05:46:40;10.10;90.90
48575;DHT22;34352;51.084;3.712;2023-12-29T05:49:15;10.10;91.60
48575;DHT22;34352;51.084;3.712;2023-12-29T05:51:46;10.10;91.30
48575;DHT22;34352;51.084;3.712;2023-12-29T05:54:12;10.10;91.60
48575;DHT22;34352;51.084;3.712;2023-12-29T05:56:40;10.10;91.70
48575;DHT22;34352;51.084;3.712;2023-12-29T05:59:11;10.20;91.70
48575;DHT22;34352;51.084;3.712;2023-12-29T06:01:38;10.10;92.30
48575;DHT22;34352;51.084;3.712;2023-12-29T06:04:05;10.10;92.80
48575;DHT22;34352;51.084;3.712;2023-12-29T06:06:33;10.00;93.00
48575;DHT22;34352;51.084;3.712;2023-12-29T06:09:04;10.10;93.10
48575;DHT22;34352;51.084;3.712;2023-12-29T06:11:36;10.10;93.30
48575;DHT22;34352;51.084;3.712;2023-12-29T06:14:02;10.10;93.10
48575;DHT22;34352;51.084;3.712;2023-12-29T06:16:35;10.10;93.30
48575;DHT22;34352;51.084;3.712;2023-12-29T06:19:00;10.10;93.70
48575;DHT22;34352;51.084;3.712;2023-12-29T06:21:30;10.00;93.90
48575;DHT22;34352;51.084;3.712;2023-12-29T06:24:03;10.00;94.20
48575;DHT22;34352;51.084;3.712;2023-12-29T06:26:31;10.00;93.90
48575;DHT22;34352;51.084;3.712;2023-12-29T06:28:58;9.90;94.50
48575;DHT22;34352;51.084;3.712;2023-12-29T06:31:23;10.00;94.80
48575;DHT22;34352;51.084;3.712;2023-12-29T06:33:59;10.00;94.50
48575;DHT22;34352;51.084;3.712;2023-12-29T06:36:27;10.00;94.50
48575;DHT22;34352;51.084;3.712;2023-12-29T06:38:53;10.00;94.80
48575;DHT22;34352;51.084;3.712;2023-12-29T06:41:29;10.00;94.90
48575;DHT22;34352;51.084;3.712;2023-12-29T06:43:58;10.00;94.80
48575;DHT22;34352;51.084;3.712;2023-12-29T06:46:24;10.00;95.20
48575;DHT22;34352;51.084;3.712;2023-12-29T06:49:00;10.00;95.40
48575;DHT22;34352;51.084;3.712;2023-12-29T06:51:26;10.00;95.00
48575;DHT22;34352;51.084;3.712;2023-12-29T06:53:52;10.00;94.70
48575;DHT22;34352;51.084;3.712;2023-12-29T06:56:19;10.00;94.80
48575;DHT22;34352;51.084;3.712;2023-12-29T06:58:44;10.00;94.30
48575;DHT22;34352;51.084;3.712;2023-12-29T07:01:10;10.10;93.90
48575;DHT22;34352;51.084;3.712;2023-12-29T07:03:38;10.00;94.00
48575;DHT22;34352;51.084;3.712;2023-12-29T07:06:04;10.10;93.80
48575;DHT22;34352;51.084;3.712;2023-12-29T07:08:30;10.10;92.80
48575;DHT22;34352;51.084;3.712;2023-12-29T07:10:56;10.10;92.90
48575;DHT22;34352;51.084;3.712;2023-12-29T07:13:31;10.10;93.10
48575;DHT22;34352;51.084;3.712;2023-12-29T07:15:58;10.10;91.70
48575;DHT22;34352;51.084;3.712;2023-12-29T07:18:27;10.20;91.40
48575;DHT22;34352;51.084;3.712;2023-12-29T07:20:55;10.20;90.60
48575;DHT22;34352;51.084;3.712;2023-12-29T07:23:22;10.20;90.00
48575;DHT22;34352;51.084;3.712;2023-12-29T07:28:40;10.20;89.30
48575;DHT22;34352;51.084;3.712;2023-12-29T07:31:08;10.20;87.10
48575;DHT22;34352;51.084;3.712;2023-12-29T07:33:37;10.20;87.40
48575;DHT22;34352;51.084;3.712;2023-12-29T07:36:07;10.20;85.50
48575;DHT22;34352;51.084;3.712;2023-12-29T07:38:33;10.30;85.80
48575;DHT22;34352;51.084;3.712;2023-12-29T07:41:05;10.30;88.30
48575;DHT22;34352;51.084;3.712;2023-12-29T07:43:32;10.20;91.40
48575;DHT22;34352;51.084;3.712;2023-12-29T07:46:00;10.20;93.10
48575;DHT22;34352;51.084;3.712;2023-12-29T07:48:26;10.10;94.10
48575;DHT22;34352;51.084;3.712;2023-12-29T07:50:52;10.00;95.90
48575;DHT22;34352;51.084;3.712;2023-12-29T07:53:28;9.90;96.90
48575;DHT22;34352;51.084;3.712;2023-12-29T07:55:58;9.80;98.20
48575;DHT22;34352;51.084;3.712;2023-12-29T07:58:24;9.70;99.20
48575;DHT22;34352;51.084;3.712;2023-12-29T08:01:03;9.70;99.90
48575;DHT22;34352;51.084;3.712;2023-12-29T08:03:29;9.70;99.90
48575;DHT22;34352;51.084;3.712;2023-12-29T08:05:55;9.60;99.90
48575;DHT22;34352;51.084;3.712;2023-12-29T08:08:23;9.70;99.90
48575;DHT22;34352;51.084;3.712;2023-12-29T08:10:51;9.60;99.90
48575;DHT22;34352;51.084;3.712;2023-12-29T08:13:18;9.70;99.90
48575;DHT22;34352;51.084;3.712;2023-12-29T08:16:00;9.70;99.90
48575;DHT22;34352;51.084;3.712;2023-12-29T08:18:30;9.70;99.90
48575;DHT22;34352;51.084;3.712;2023-12-29T08:21:04;9.70;99.90
48575;DHT22;34352;51.084;3.712;2023-12-29T08:23:35;9.70;99.90
48575;DHT22;34352;51.084;3.712;2023-12-29T08:26:03;9.70;99.90
48575;DHT22;34352;51.084;3.712;2023-12-29T08:28:32;9.70;99.90
48575;DHT22;34352;51.084;3.712;2023-12-29T08:31:08;9.70;99.90
48575;DHT22;34352;51.084;3.712;2023-12-29T08:33:40;9.70;99.80
48575;DHT22;34352;51.084;3.712;2023-12-29T08:36:07;9.80;99.90
48575;DHT22;34352;51.084;3.712;2023-12-29T08:38:35;9.90;99.90
48575;DHT22;34352;51.084;3.712;2023-12-29T08:41:02;9.90;99.90
48575;DHT22;34352;51.084;3.712;2023-12-29T08:43:30;9.90;99.90
48575;DHT22;34352;51.084;3.712;2023-12-29T08:45:58;9.90;99.70
48575;DHT22;34352;51.084;3.712;2023-12-29T08:48:24;10.00;99.60
48575;DHT22;34352;51.084;3.712;2023-12-29T08:50:58;10.00;99.50
48575;DHT22;34352;51.084;3.712;2023-12-29T08:53:25;10.00;99.10
48575;DHT22;34352;51.084;3.712;2023-12-29T08:55:52;10.00;99.30
48575;DHT22;34352;51.084;3.712;2023-12-29T08:58:30;10.00;99.00
48575;DHT22;34352;51.084;3.712;2023-12-29T09:01:01;10.10;98.70
48575;DHT22;34352;51.084;3.712;2023-12-29T09:03:30;10.10;98.00
48575;DHT22;34352;51.084;3.712;2023-12-29T09:05:56;10.10;97.60
48575;DHT22;34352;51.084;3.712;2023-12-29T09:08:24;10.20;96.70
48575;DHT22;34352;51.084;3.712;2023-12-29T09:10:50;10.30;96.60
48575;DHT22;34352;51.084;3.712;2023-12-29T09:13:21;11.10;96.90
48575;DHT22;34352;51.084;3.712;2023-12-29T09:15:48;10.40;96.70
48575;DHT22;34352;51.084;3.712;2023-12-29T09:18:14;10.40;96.70
48575;DHT22;34352;51.084;3.712;2023-12-29T09:20:55;10.50;96.40
48575;DHT22;34352;51.084;3.712;2023-12-29T09:23:21;10.50;96.30
48575;DHT22;34352;51.084;3.712;2023-12-29T09:25:51;10.60;95.80
48575;DHT22;34352;51.084;3.712;2023-12-29T09:28:20;10.60;94.90
48575;DHT22;34352;51.084;3.712;2023-12-29T09:30:47;10.60;95.40
48575;DHT22;34352;51.084;3.712;2023-12-29T09:33:18;10.60;95.00
48575;DHT22;34352;51.084;3.712;2023-12-29T09:35:44;10.50;95.20
48575;DHT22;34352;51.084;3.712;2023-12-29T09:38:15;10.50;94.80
48575;DHT22;34352;51.084;3.712;2023-12-29T09:40:43;10.50;95.20
48575;DHT22;34352;51.084;3.712;2023-12-29T09:43:12;10.50;93.70
48575;DHT22;34352;51.084;3.712;2023-12-29T09:45:47;10.50;93.20
48575;DHT22;34352;51.084;3.712;2023-12-29T09:48:15;10.50;93.40
48575;DHT22;34352;51.084;3.712;2023-12-29T09:50:43;10.60;93.00
48575;DHT22;34352;51.084;3.712;2023-12-29T09:53:22;10.60;92.80
48575;DHT22;34352;51.084;3.712;2023-12-29T09:55:57;10.70;92.20
48575;DHT22;34352;51.084;3.712;2023-12-29T09:58:29;10.70;91.40
48575;DHT22;34352;51.084;3.712;2023-12-29T10:00:55;10.70;91.50
48575;DHT22;34352;51.084;3.712;2023-12-29T10:03:26;10.80;90.90
48575;DHT22;34352;51.084;3.712;2023-12-29T10:06:00;10.70;90.80
48575;DHT22;34352;51.084;3.712;2023-12-29T10:08:33;10.70;91.60
48575;DHT22;34352;51.084;3.712;2023-12-29T10:11:02;10.60;92.20
48575;DHT22;34352;51.084;3.712;2023-12-29T10:13:37;10.60;93.00
48575;DHT22;34352;51.084;3.712;2023-12-29T10:16:18;10.70;93.40
48575;DHT22;34352;51.084;3.712;2023-12-29T10:22:38;10.60;95.10
48575;DHT22;34352;51.084;3.712;2023-12-29T10:25:10;10.70;95.90
48575;DHT22;34352;51.084;3.712;2023-12-29T10:27:49;10.70;96.50
48575;DHT22;34352;51.084;3.712;2023-12-29T10:30:21;10.80;96.30
48575;DHT22;34352;51.084;3.712;2023-12-29T10:32:51;10.90;96.20
48575;DHT22;34352;51.084;3.712;2023-12-29T10:35:17;10.90;96.10
48575;DHT22;34352;51.084;3.712;2023-12-29T10:37:51;10.90;96.20
48575;DHT22;34352;51.084;3.712;2023-12-29T10:40:21;11.00;96.50
48575;DHT22;34352;51.084;3.712;2023-12-29T10:42:55;11.00;96.60
48575;DHT22;34352;51.084;3.712;2023-12-29T10:45:29;11.10;96.60
48575;DHT22;34352;51.084;3.712;2023-12-29T10:47:59;11.20;96.40
48575;DHT22;34352;51.084;3.712;2023-12-29T10:50:45;11.20;95.50
48575;DHT22;34352;51.084;3.712;2023-12-29T10:53:16;11.20;96.10
48575;DHT22;34352;51.084;3.712;2023-12-29T10:55:43;11.30;95.60
48575;DHT22;34352;51.084;3.712;2023-12-29T10:58:16;11.40;95.40
48575;DHT22;34352;51.084;3.712;2023-12-29T11:00:43;11.40;95.30
48575;DHT22;34352;51.084;3.712;2023-12-29T11:03:18;11.40;95.30
48575;DHT22;34352;51.084;3.712;2023-12-29T11:05:49;11.30;95.90
48575;DHT22;34352;51.084;3.712;2023-12-29T11:08:22;11.30;96.20
48575;DHT22;34352;51.084;3.712;2023-12-29T11:10:51;11.30;96.40
48575;DHT22;34352;51.084;3.712;2023-12-29T11:13:31;11.30;96.40
48575;DHT22;34352;51.084;3.712;2023-12-29T11:15:59;11.30;96.40
48575;DHT22;34352;51.084;3.712;2023-12-29T11:18:29;11.30;96.60
48575;DHT22;34352;51.084;3.712;2023-12-29T11:20:57;11.30;96.40
48575;DHT22;34352;51.084;3.712;2023-12-29T11:23:25;11.40;96.40
48575;DHT22;34352;51.084;3.712;2023-12-29T11:25:52;11.40;95.70
48575;DHT22;34352;51.084;3.712;2023-12-29T11:28:19;11.40;96.00
48575;DHT22;34352;51.084;3.712;2023-12-29T11:30:46;11.40;96.20
48575;DHT22;34352;51.084;3.712;2023-12-29T11:33:23;11.30;97.10
48575;DHT22;34352;51.084;3.712;2023-12-29T11:39:06;11.30;97.20
48575;DHT22;34352;51.084;3.712;2023-12-29T11:44:55;11.30;98.00
48575;DHT22;34352;51.084;3.712;2023-12-29T11:47:37;11.20;97.80
48575;DHT22;34352;51.084;3.712;2023-12-29T11:50:30;11.20;97.70
48575;DHT22;34352;51.084;3.712;2023-12-29T11:53:01;11.30;97.80
48575;DHT22;34352;51.084;3.712;2023-12-29T11:55:39;11.40;96.40
48575;DHT22;34352;51.084;3.712;2023-12-29T11:58:27;11.50;95.50
48575;DHT22;34352;51.084;3.712;2023-12-29T12:00:56;11.50;95.40
48575;DHT22;34352;51.084;3.712;2023-12-29T12:03:30;11.50;95.70
48575;DHT22;34352;51.084;3.712;2023-12-29T12:05:57;11.60;94.80
48575;DHT22;34352;51.084;3.712;2023-12-29T12:08:32;11.60;94.30
48575;DHT22;34352;51.084;3.712;2023-12-29T12:14:02;11.60;93.40
48575;DHT22;34352;51.084;3.712;2023-12-29T12:17:03;11.60;92.30
48575;DHT22;34352;51.084;3.712;2023-12-29T12:19:32;11.50;92.50
48575;DHT22;34352;51.084;3.712;2023-12-29T12:22:00;11.40;93.20
48575;DHT22;34352;51.084;3.712;2023-12-29T12:24:28;11.50;93.00
48575;DHT22;34352;51.084;3.712;2023-12-29T12:26:56;11.40;92.40
48575;DHT22;34352;51.084;3.712;2023-12-29T12:29:25;11.40;92.50
48575;DHT22;34352;51.084;3.712;2023-12-29T12:32:00;11.50;92.60
48575;DHT22;34352;51.084;3.712;2023-12-29T12:34:42;11.60;91.90
48575;DHT22;34352;51.084;3.712;2023-12-29T12:40:32;11.60;92.10
48575;DHT22;34352;51.084;3.712;2023-12-29T12:42:59;11.50;91.90
48575;DHT22;34352;51.084;3.712;2023-12-29T12:45:42;11.50;91.90
48575;DHT22;34352;51.084;3.712;2023-12-29T12:48:20;11.50;92.00
48575;DHT22;34352;51.084;3.712;2023-12-29T12:50:49;11.70;92.30
48575;DHT22;34352;51.084;3.712;2023-12-29T12:53:21;11.90;90.50
48575;DHT22;34352;51.084;3.712;2023-12-29T12:55:50;12.00;90.20
48575;DHT22;34352;51.084;3.712;2023-12-29T13:01:28;12.10;87.90
48575;DHT22;34352;51.084;3.712;2023-12-29T13:04:08;12.00;88.80
48575;DHT22;34352;51.084;3.712;2023-12-29T13:06:50;11.90;89.80
48575;DHT22;34352;51.084;3.712;2023-12-29T13:09:17;11.80;89.80
48575;DHT22;34352;51.084;3.712;2023-12-29T13:15:14;11.90;90.30
48575;DHT22;34352;51.084;3.712;2023-12-29T13:18:06;11.80;91.00
48575;DHT22;34352;51.084;3.712;2023-12-29T13:24:03;11.80;91.40
48575;DHT22;34352;51.084;3.712;2023-12-29T13:26:29;11.90;91.70
48575;DHT22;34352;51.084;3.712;2023-12-29T13:29:02;12.00;90.30
48575;DHT22;34352;51.084;3.712;2023-12-29T13:31:28;11.80;90.60
48575;DHT22;34352;51.084;3.712;2023-12-29T13:34:02;11.80;91.10
48575;DHT22;34352;51.084;3.712;2023-12-29T13:36:43;11.60;91.50
48575;DHT22;34352;51.084;3.712;2023-12-29T13:41:55;11.50;92.20
48575;DHT22;34352;51.084;3.712;2023-12-29T13:44:25;11.40;93.10
48575;DHT22;34352;51.084;3.712;2023-12-29T13:47:00;11.30;93.70
48575;DHT22;34352;51.084;3.712;2023-12-29T13:49:28;11.40;93.50
48575;DHT22;34352;51.084;3.712;2023-12-29T13:51:59;11.40;93.40
48575;DHT22;34352;51.084;3.712;2023-12-29T13:54:30;11.40;93.40
48575;DHT22;34352;51.084;3.712;2023-12-29T13:57:03;11.40;93.30
48575;DHT22;34352;51.084;3.712;2023-12-29T13:59:31;11.50;92.60
48575;DHT22;34352;51.084;3.712;2023-12-29T14:05:27;11.50;93.50
48575;DHT22;34352;51.084;3.712;2023-12-29T14:08:18;11.50;92.80
48575;DHT22;34352;51.084;3.712;2023-12-29T14:10:59;11.60;92.60
48575;DHT22;34352;51.084;3.712;2023-12-29T14:13:31;11.60;92.20
48575;DHT22;34352;51.084;3.712;2023-12-29T14:16:09;11.60;92.30
48575;DHT22;34352;51.084;3.712;2023-12-29T14:21:50;11.50;92.80
48575;DHT22;34352;51.084;3.712;2023-12-29T14:24:18;11.40;93.20
48575;DHT22;34352;51.084;3.712;2023-12-29T14:27:03;11.40;93.40
48575;DHT22;34352;51.084;3.712;2023-12-29T14:29:43;11.40;93.70
48575;DHT22;34352;51.084;3.712;2023-12-29T14:32:15;11.40;94.30
48575;DHT22;34352;51.084;3.712;2023-12-29T14:34:50;11.30;96.10
48575;DHT22;34352;51.084;3.712;2023-12-29T14:37:22;11.20;97.30
48575;DHT22;34352;51.084;3.712;2023-12-29T14:39:59;11.20;97.90
48575;DHT22;34352;51.084;3.712;2023-12-29T14:42:48;11.10;98.30
48575;DHT22;34352;51.084;3.712;2023-12-29T14:45:16;11.10;98.70
48575;DHT22;34352;51.084;3.712;2023-12-29T14:47:43;11.10;98.40
48575;DHT22;34352;51.084;3.712;2023-12-29T14:50:19;11.10;98.60
48575;DHT22;34352;51.084;3.712;2023-12-29T14:52:45;11.10;98.70
48575;DHT22;34352;51.084;3.712;2023-12-29T14:55:12;11.20;98.90
48575;DHT22;34352;51.084;3.712;2023-12-29T14:58:01;11.20;98.40
48575;DHT22;34352;51.084;3.712;2023-12-29T15:00:34;11.20;97.90
48575;DHT22;34352;51.084;3.712;2023-12-29T15:03:07;11.10;97.50
48575;DHT22;34352;51.084;3.712;2023-12-29T15:05:38;11.20;97.70
48575;DHT22;34352;51.084;3.712;2023-12-29T15:08:03;11.20;96.80
48575;DHT22;34352;51.084;3.712;2023-12-29T15:10:31;11.20;96.10
48575;DHT22;34352;51.084;3.712;2023-12-29T15:13:00;11.20;95.70
48575;DHT22;34352;51.084;3.712;2023-12-29T15:15:30;11.20;95.10
48575;DHT22;34352;51.084;3.712;2023-12-29T15:17:55;11.20;95.00
48575;DHT22;34352;51.084;3.712;2023-12-29T15:20:22;11.20;95.20
48575;DHT22;34352;51.084;3.712;2023-12-29T15:22:57;11.10;95.60
48575;DHT22;34352;51.084;3.712;2023-12-29T15:25:25;11.10;96.10
48575;DHT22;34352;51.084;3.712;2023-12-29T15:27:52;11.10;96.70
48575;DHT22;34352;51.084;3.712;2023-12-29T15:30:23;10.90;97.90
48575;DHT22;34352;51.084;3.712;2023-12-29T15:32:49;10.90;98.60
48575;DHT22;34352;51.084;3.712;2023-12-29T15:35:15;10.80;99.10
48575;DHT22;34352;51.084;3.712;2023-12-29T15:37:42;10.80;99.90
48575;DHT22;34352;51.084;3.712;2023-12-29T15:40:20;10.80;99.90
48575;DHT22;34352;51.084;3.712;2023-12-29T15:42:48;10.70;99.90
48575;DHT22;34352;51.084;3.712;2023-12-29T15:45:33;10.60;99.90
48575;DHT22;34352;51.084;3.712;2023-12-29T15:47:58;10.60;99.90
48575;DHT22;34352;51.084;3.712;2023-12-29T15:50:31;10.60;99.90
48575;DHT22;34352;51.084;3.712;2023-12-29T15:56:02;10.50;99.90
48575;DHT22;34352;51.084;3.712;2023-12-29T15:58:29;10.40;99.90
48575;DHT22;34352;51.084;3.712;2023-12-29T16:01:00;10.30;99.90
48575;DHT22;34352;51.084;3.712;2023-12-29T16:03:31;10.30;99.90
48575;DHT22;34352;51.084;3.712;2023-12-29T16:05:59;10.30;99.90
48575;DHT22;34352;51.084;3.712;2023-12-29T16:08:26;10.30;99.90
48575;DHT22;34352;51.084;3.712;2023-12-29T16:10:52;10.30;99.90
48575;DHT22;34352;51.084;3.712;2023-12-29T16:13:34;10.40;98.90
48575;DHT22;34352;51.084;3.712;2023-12-29T16:16:22;10.50;98.60
48575;DHT22;34352;51.084;3.712;2023-12-29T16:19:00;10.50;98.10
48575;DHT22;34352;51.084;3.712;2023-12-29T16:21:27;10.60;97.30
48575;DHT22;34352;51.084;3.712;2023-12-29T16:23:54;10.60;97.20
48575;DHT22;34352;51.084;3.712;2023-12-29T16:26:20;10.60;97.30
48575;DHT22;34352;51.084;3.712;2023-12-29T16:28:50;10.70;97.20
48575;DHT22;34352;51.084;3.712;2023-12-29T16:31:40;10.70;97.10
48575;DHT22;34352;51.084;3.712;2023-12-29T16:40:23;10.80;96.50
48575;DHT22;34352;51.084;3.712;2023-12-29T16:42:54;10.80;96.20
48575;DHT22;34352;51.084;3.712;2023-12-29T16:45:24;10.80;95.40
48575;DHT22;34352;51.084;3.712;2023-12-29T16:47:51;10.80;95.70
48575;DHT22;34352;51.084;3.712;2023-12-29T16:50:18;10.80;95.40
48575;DHT22;34352;51.084;3.712;2023-12-29T16:52:49;10.80;94.90
48575;DHT22;34352;51.084;3.712;2023-12-29T16:55:23;10.80;94.20
48575;DHT22;34352;51.084;3.712;2023-12-29T17:01:35;10.80;93.90
48575;DHT22;34352;51.084;3.712;2023-12-29T17:04:01;10.80;93.30
48575;DHT22;34352;51.084;3.712;2023-12-29T17:06:29;10.90;92.80
48575;DHT22;34352;51.084;3.712;2023-12-29T17:12:46;10.90;92.10
48575;DHT22;34352;51.084;3.712;2023-12-29T17:15:14;10.90;91.60
48575;DHT22;34352;51.084;3.712;2023-12-29T17:17:40;10.90;91.40